sensor_id;sensor_type;location;lat;lon;timestamp;temperature;humidity
49489;SHT31;35382;51.484;11.476;2023-07-09T00:01:24;18.02;65.58
49489;SHT31;35382;51.484;11.476;2023-07-09T00:03:05;18.10;65.29
49489;SHT31;35382;51.484;11.476;2023-07-09T00:04:46;18.23;64.95
49489;SHT31;35382;51.484;11.476;2023-07-09T00:06:27;18.13;65.65
49489;SHT31;35382;51.484;11.476;2023-07-09T00:10:15;17.99;66.36
49489;SHT31;35382;51.484;11.476;2023-07-09T00:11:57;18.05;66.18
49489;SHT31;35382;51.484;11.476;2023-07-09T00:13:38;18.06;66.19
49489;SHT31;35382;51.484;11.476;2023-07-09T00:15:19;17.82;66.31
49489;SHT31;35382;51.484;11.476;2023-07-09T00:17:00;17.68;66.42
49489;SHT31;35382;51.484;11.476;2023-07-09T00:18:42;17.81;65.81
49489;SHT31;35382;51.484;11.476;2023-07-09T00:20:23;18.02;65.26
49489;SHT31;35382;51.484;11.476;2023-07-09T00:22:13;18.10;65.42
49489;SHT31;35382;51.484;11.476;2023-07-09T00:23:57;18.23;65.33
49489;SHT31;35382;51.484;11.476;2023-07-09T00:25:37;18.19;65.48
49489;SHT31;35382;51.484;11.476;2023-07-09T00:27:20;18.23;65.44
49489;SHT31;35382;51.484;11.476;2023-07-09T00:29:02;18.00;66.98
49489;SHT31;35382;51.484;11.476;2023-07-09T00:30:45;17.86;66.71
49489;SHT31;35382;51.484;11.476;2023-07-09T00:32:26;17.89;66.22
49489;SHT31;35382;51.484;11.476;2023-07-09T00:34:10;17.99;65.81
49489;SHT31;35382;51.484;11.476;2023-07-09T00:35:54;17.82;66.50
49489;SHT31;35382;51.484;11.476;2023-07-09T00:37:38;17.95;64.55
49489;SHT31;35382;51.484;11.476;2023-07-09T00:39:20;18.02;64.68
49489;SHT31;35382;51.484;11.476;2023-07-09T00:41:04;17.99;65.64
49489;SHT31;35382;51.484;11.476;2023-07-09T00:42:53;17.92;65.31
49489;SHT31;35382;51.484;11.476;2023-07-09T00:44:34;17.89;65.48
49489;SHT31;35382;51.484;11.476;2023-07-09T00:48:13;18.12;65.28
49489;SHT31;35382;51.484;11.476;2023-07-09T00:50:03;18.32;65.09
49489;SHT31;35382;51.484;11.476;2023-07-09T00:51:49;18.30;64.96
49489;SHT31;35382;51.484;11.476;2023-07-09T00:53:31;18.30;65.34
49489;SHT31;35382;51.484;11.476;2023-07-09T00:55:17;18.46;63.94
49489;SHT31;35382;51.484;11.476;2023-07-09T00:57:01;18.33;64.72
49489;SHT31;35382;51.484;11.476;2023-07-09T00:58:44;18.39;64.81
49489;SHT31;35382;51.484;11.476;2023-07-09T01:00:33;18.41;64.33
49489;SHT31;35382;51.484;11.476;2023-07-09T01:02:17;18.56;63.33
49489;SHT31;35382;51.484;11.476;2023-07-09T01:04:03;18.41;63.99
49489;SHT31;35382;51.484;11.476;2023-07-09T01:05:48;18.40;64.17
49489;SHT31;35382;51.484;11.476;2023-07-09T01:07:32;18.51;63.50
49489;SHT31;35382;51.484;11.476;2023-07-09T01:09:13;18.46;64.79
49489;SHT31;35382;51.484;11.476;2023-07-09T01:10:54;18.27;65.15
49489;SHT31;35382;51.484;11.476;2023-07-09T01:12:35;18.06;65.54
49489;SHT31;35382;51.484;11.476;2023-07-09T01:14:19;17.96;66.43
49489;SHT31;35382;51.484;11.476;2023-07-09T01:16:02;17.73;66.59
49489;SHT31;35382;51.484;11.476;2023-07-09T01:17:43;17.55;67.02
49489;SHT31;35382;51.484;11.476;2023-07-09T01:19:35;17.45;67.50
49489;SHT31;35382;51.484;11.476;2023-07-09T01:21:21;17.39;67.75
49489;SHT31;35382;51.484;11.476;2023-07-09T01:23:02;17.27;68.39
49489;SHT31;35382;51.484;11.476;2023-07-09T01:24:58;17.38;67.69
49489;SHT31;35382;51.484;11.476;2023-07-09T01:26:42;17.45;67.82
49489;SHT31;35382;51.484;11.476;2023-07-09T01:28:24;17.31;68.41
49489;SHT31;35382;51.484;11.476;2023-07-09T01:30:11;17.42;68.29
49489;SHT31;35382;51.484;11.476;2023-07-09T01:31:55;17.17;69.38
49489;SHT31;35382;51.484;11.476;2023-07-09T01:33:37;16.98;70.26
49489;SHT31;35382;51.484;11.476;2023-07-09T01:35:20;17.03;69.37
49489;SHT31;35382;51.484;11.476;2023-07-09T01:37:02;16.98;69.75
49489;SHT31;35382;51.484;11.476;2023-07-09T01:38:44;17.17;68.49
49489;SHT31;35382;51.484;11.476;2023-07-09T01:40:28;17.22;68.82
49489;SHT31;35382;51.484;11.476;2023-07-09T01:42:09;17.14;69.21
49489;SHT31;35382;51.484;11.476;2023-07-09T01:43:50;17.15;69.66
49489;SHT31;35382;51.484;11.476;2023-07-09T01:45:32;17.17;69.18
49489;SHT31;35382;51.484;11.476;2023-07-09T01:47:13;17.22;68.53
49489;SHT31;35382;51.484;11.476;2023-07-09T01:48:54;17.21;68.48
49489;SHT31;35382;51.484;11.476;2023-07-09T01:50:35;17.24;68.17
49489;SHT31;35382;51.484;11.476;2023-07-09T01:52:17;17.27;68.37
49489;SHT31;35382;51.484;11.476;2023-07-09T01:53:59;17.48;67.18
49489;SHT31;35382;51.484;11.476;2023-07-09T01:55:40;17.53;67.29
49489;SHT31;35382;51.484;11.476;2023-07-09T01:57:24;17.41;67.96
49489;SHT31;35382;51.484;11.476;2023-07-09T01:59:06;17.39;68.31
49489;SHT31;35382;51.484;11.476;2023-07-09T02:00:47;17.27;68.47
49489;SHT31;35382;51.484;11.476;2023-07-09T02:02:28;17.38;68.33
49489;SHT31;35382;51.484;11.476;2023-07-09T02:04:10;17.25;68.69
49489;SHT31;35382;51.484;11.476;2023-07-09T02:05:53;17.38;68.49
49489;SHT31;35382;51.484;11.476;2023-07-09T02:07:35;17.38;67.44
49489;SHT31;35382;51.484;11.476;2023-07-09T02:09:16;17.46;67.90
49489;SHT31;35382;51.484;11.476;2023-07-09T02:10:57;17.42;67.21
49489;SHT31;35382;51.484;11.476;2023-07-09T02:12:39;17.39;67.05
49489;SHT31;35382;51.484;11.476;2023-07-09T02:14:20;17.59;65.86
49489;SHT31;35382;51.484;11.476;2023-07-09T02:16:01;17.53;66.85
49489;SHT31;35382;51.484;11.476;2023-07-09T02:17:42;17.55;66.64
49489;SHT31;35382;51.484;11.476;2023-07-09T02:19:23;17.52;67.31
49489;SHT31;35382;51.484;11.476;2023-07-09T02:21:04;17.68;66.58
49489;SHT31;35382;51.484;11.476;2023-07-09T02:22:45;17.56;67.02
49489;SHT31;35382;51.484;11.476;2023-07-09T02:24:26;17.42;67.09
49489;SHT31;35382;51.484;11.476;2023-07-09T02:26:07;17.42;67.76
49489;SHT31;35382;51.484;11.476;2023-07-09T02:27:48;17.41;67.29
49489;SHT31;35382;51.484;11.476;2023-07-09T02:29:30;17.41;67.50
49489;SHT31;35382;51.484;11.476;2023-07-09T02:31:11;17.38;67.83
49489;SHT31;35382;51.484;11.476;2023-07-09T02:32:52;17.28;68.24
49489;SHT31;35382;51.484;11.476;2023-07-09T02:34:34;17.48;68.22
49489;SHT31;35382;51.484;11.476;2023-07-09T02:36:15;17.36;68.76
49489;SHT31;35382;51.484;11.476;2023-07-09T02:37:56;17.41;68.04
49489;SHT31;35382;51.484;11.476;2023-07-09T02:39:37;17.21;68.34
49489;SHT31;35382;51.484;11.476;2023-07-09T02:41:18;17.05;69.17
49489;SHT31;35382;51.484;11.476;2023-07-09T02:42:59;16.77;70.16
49489;SHT31;35382;51.484;11.476;2023-07-09T02:44:41;16.46;71.07
49489;SHT31;35382;51.484;11.476;2023-07-09T02:46:23;16.47;71.17
49489;SHT31;35382;51.484;11.476;2023-07-09T02:48:04;16.65;70.79
49489;SHT31;35382;51.484;11.476;2023-07-09T02:49:50;16.68;70.16
49489;SHT31;35382;51.484;11.476;2023-07-09T02:51:32;16.65;70.50
49489;SHT31;35382;51.484;11.476;2023-07-09T02:53:12;16.68;69.92
49489;SHT31;35382;51.484;11.476;2023-07-09T02:54:53;16.61;70.80
49489;SHT31;35382;51.484;11.476;2023-07-09T02:56:34;16.54;71.32
49489;SHT31;35382;51.484;11.476;2023-07-09T02:58:15;16.41;71.57
49489;SHT31;35382;51.484;11.476;2023-07-09T02:59:57;16.47;71.86
49489;SHT31;35382;51.484;11.476;2023-07-09T03:01:39;16.49;71.48
49489;SHT31;35382;51.484;11.476;2023-07-09T03:03:20;16.46;71.43
49489;SHT31;35382;51.484;11.476;2023-07-09T03:05:01;16.26;71.65
49489;SHT31;35382;51.484;11.476;2023-07-09T03:06:42;16.19;72.14
49489;SHT31;35382;51.484;11.476;2023-07-09T03:08:23;16.20;71.88
49489;SHT31;35382;51.484;11.476;2023-07-09T03:10:04;16.13;72.39
49489;SHT31;35382;51.484;11.476;2023-07-09T03:11:45;16.34;71.87
49489;SHT31;35382;51.484;11.476;2023-07-09T03:13:26;16.26;72.22
49489;SHT31;35382;51.484;11.476;2023-07-09T03:15:07;16.31;71.92
49489;SHT31;35382;51.484;11.476;2023-07-09T03:16:48;16.30;72.10
49489;SHT31;35382;51.484;11.476;2023-07-09T03:18:29;16.36;71.55
49489;SHT31;35382;51.484;11.476;2023-07-09T03:20:10;16.29;71.71
49489;SHT31;35382;51.484;11.476;2023-07-09T03:21:51;16.29;71.98
49489;SHT31;35382;51.484;11.476;2023-07-09T03:23:32;16.29;71.52
49489;SHT31;35382;51.484;11.476;2023-07-09T03:25:13;16.27;72.12
49489;SHT31;35382;51.484;11.476;2023-07-09T03:26:54;16.33;71.60
49489;SHT31;35382;51.484;11.476;2023-07-09T03:28:35;16.49;71.44
49489;SHT31;35382;51.484;11.476;2023-07-09T03:30:16;16.70;70.80
49489;SHT31;35382;51.484;11.476;2023-07-09T03:31:57;16.57;71.48
49489;SHT31;35382;51.484;11.476;2023-07-09T03:33:38;16.57;71.14
49489;SHT31;35382;51.484;11.476;2023-07-09T03:35:19;16.41;71.46
49489;SHT31;35382;51.484;11.476;2023-07-09T03:37:00;16.30;71.94
49489;SHT31;35382;51.484;11.476;2023-07-09T03:38:41;16.07;73.40
49489;SHT31;35382;51.484;11.476;2023-07-09T03:40:23;15.96;73.73
49489;SHT31;35382;51.484;11.476;2023-07-09T03:42:04;16.02;73.84
49489;SHT31;35382;51.484;11.476;2023-07-09T03:43:45;15.86;74.28
49489;SHT31;35382;51.484;11.476;2023-07-09T03:45:26;15.99;73.83
49489;SHT31;35382;51.484;11.476;2023-07-09T03:47:07;15.93;74.04
49489;SHT31;35382;51.484;11.476;2023-07-09T03:48:48;15.86;74.65
49489;SHT31;35382;51.484;11.476;2023-07-09T03:50:31;15.92;74.53
49489;SHT31;35382;51.484;11.476;2023-07-09T03:52:12;15.86;75.17
49489;SHT31;35382;51.484;11.476;2023-07-09T03:53:53;16.00;74.20
49489;SHT31;35382;51.484;11.476;2023-07-09T03:55:34;16.13;73.83
49489;SHT31;35382;51.484;11.476;2023-07-09T03:57:14;16.00;74.82
49489;SHT31;35382;51.484;11.476;2023-07-09T03:58:55;16.07;74.52
49489;SHT31;35382;51.484;11.476;2023-07-09T04:00:36;16.05;74.76
49489;SHT31;35382;51.484;11.476;2023-07-09T04:02:17;16.05;74.84
49489;SHT31;35382;51.484;11.476;2023-07-09T04:03:58;16.34;74.30
49489;SHT31;35382;51.484;11.476;2023-07-09T04:05:39;16.73;73.54
49489;SHT31;35382;51.484;11.476;2023-07-09T04:07:20;17.01;72.66
49489;SHT31;35382;51.484;11.476;2023-07-09T04:09:01;17.24;70.91
49489;SHT31;35382;51.484;11.476;2023-07-09T04:10:42;17.10;71.58
49489;SHT31;35382;51.484;11.476;2023-07-09T04:12:23;17.10;72.55
49489;SHT31;35382;51.484;11.476;2023-07-09T04:14:04;17.61;71.06
49489;SHT31;35382;51.484;11.476;2023-07-09T04:15:45;18.02;69.94
49489;SHT31;35382;51.484;11.476;2023-07-09T04:17:26;18.17;68.54
49489;SHT31;35382;51.484;11.476;2023-07-09T04:19:07;18.25;69.02
49489;SHT31;35382;51.484;11.476;2023-07-09T04:20:50;18.46;68.42
49489;SHT31;35382;51.484;11.476;2023-07-09T04:22:32;18.60;68.18
49489;SHT31;35382;51.484;11.476;2023-07-09T04:24:14;18.60;68.99
49489;SHT31;35382;51.484;11.476;2023-07-09T04:25:56;18.61;69.17
49489;SHT31;35382;51.484;11.476;2023-07-09T04:27:38;18.84;69.72
49489;SHT31;35382;51.484;11.476;2023-07-09T04:29:20;18.81;68.09
49489;SHT31;35382;51.484;11.476;2023-07-09T04:31:01;18.95;68.33
49489;SHT31;35382;51.484;11.476;2023-07-09T04:32:43;18.93;68.69
49489;SHT31;35382;51.484;11.476;2023-07-09T04:34:24;18.91;69.04
49489;SHT31;35382;51.484;11.476;2023-07-09T04:36:05;18.60;69.94
49489;SHT31;35382;51.484;11.476;2023-07-09T04:37:46;18.83;69.43
49489;SHT31;35382;51.484;11.476;2023-07-09T04:39:27;18.84;69.60
49489;SHT31;35382;51.484;11.476;2023-07-09T04:41:08;19.04;69.36
49489;SHT31;35382;51.484;11.476;2023-07-09T04:42:49;19.21;68.60
49489;SHT31;35382;51.484;11.476;2023-07-09T04:44:30;19.24;68.95
49489;SHT31;35382;51.484;11.476;2023-07-09T04:46:11;19.50;68.33
49489;SHT31;35382;51.484;11.476;2023-07-09T04:47:52;19.69;67.97
49489;SHT31;35382;51.484;11.476;2023-07-09T04:49:33;19.83;67.75
49489;SHT31;35382;51.484;11.476;2023-07-09T04:51:14;20.02;67.87
49489;SHT31;35382;51.484;11.476;2023-07-09T04:52:55;20.29;68.90
49489;SHT31;35382;51.484;11.476;2023-07-09T04:54:39;20.49;67.95
49489;SHT31;35382;51.484;11.476;2023-07-09T04:56:20;20.60;67.23
49489;SHT31;35382;51.484;11.476;2023-07-09T04:58:01;20.67;69.03
49489;SHT31;35382;51.484;11.476;2023-07-09T04:59:42;20.74;66.31
49489;SHT31;35382;51.484;11.476;2023-07-09T05:01:26;20.73;66.54
49489;SHT31;35382;51.484;11.476;2023-07-09T05:03:06;20.70;65.33
49489;SHT31;35382;51.484;11.476;2023-07-09T05:04:47;20.81;66.00
49489;SHT31;35382;51.484;11.476;2023-07-09T05:06:28;21.10;64.42
49489;SHT31;35382;51.484;11.476;2023-07-09T05:08:09;21.37;64.54
49489;SHT31;35382;51.484;11.476;2023-07-09T05:09:50;21.44;64.40
49489;SHT31;35382;51.484;11.476;2023-07-09T05:11:34;21.54;64.31
49489;SHT31;35382;51.484;11.476;2023-07-09T05:13:15;21.59;65.45
49489;SHT31;35382;51.484;11.476;2023-07-09T05:14:56;21.95;66.39
49489;SHT31;35382;51.484;11.476;2023-07-09T05:16:37;22.12;63.99
49489;SHT31;35382;51.484;11.476;2023-07-09T05:18:18;22.33;63.36
49489;SHT31;35382;51.484;11.476;2023-07-09T05:19:59;22.59;64.82
49489;SHT31;35382;51.484;11.476;2023-07-09T05:21:40;22.73;64.72
49489;SHT31;35382;51.484;11.476;2023-07-09T05:23:23;23.00;64.79
49489;SHT31;35382;51.484;11.476;2023-07-09T05:25:05;23.08;62.48
49489;SHT31;35382;51.484;11.476;2023-07-09T05:26:46;23.08;62.83
49489;SHT31;35382;51.484;11.476;2023-07-09T05:28:28;23.06;61.01
49489;SHT31;35382;51.484;11.476;2023-07-09T05:30:09;23.36;60.70
49489;SHT31;35382;51.484;11.476;2023-07-09T05:31:50;23.58;60.24
49489;SHT31;35382;51.484;11.476;2023-07-09T05:33:31;23.61;60.09
49489;SHT31;35382;51.484;11.476;2023-07-09T05:35:12;23.41;60.50
49489;SHT31;35382;51.484;11.476;2023-07-09T05:36:53;23.68;60.77
49489;SHT31;35382;51.484;11.476;2023-07-09T05:38:34;23.81;60.06
49489;SHT31;35382;51.484;11.476;2023-07-09T05:40:15;24.11;59.04
49489;SHT31;35382;51.484;11.476;2023-07-09T05:41:56;23.98;58.99
49489;SHT31;35382;51.484;11.476;2023-07-09T05:43:37;24.17;61.06
49489;SHT31;35382;51.484;11.476;2023-07-09T05:45:18;24.36;59.84
49489;SHT31;35382;51.484;11.476;2023-07-09T05:46:59;24.26;58.43
49489;SHT31;35382;51.484;11.476;2023-07-09T05:48:39;24.61;58.39
49489;SHT31;35382;51.484;11.476;2023-07-09T05:50:20;24.65;57.26
49489;SHT31;35382;51.484;11.476;2023-07-09T05:52:01;24.55;56.77
49489;SHT31;35382;51.484;11.476;2023-07-09T05:53:42;24.56;57.26
49489;SHT31;35382;51.484;11.476;2023-07-09T05:55:23;24.52;55.22
49489;SHT31;35382;51.484;11.476;2023-07-09T05:57:05;24.69;55.58
49489;SHT31;35382;51.484;11.476;2023-07-09T05:58:46;24.72;55.93
49489;SHT31;35382;51.484;11.476;2023-07-09T06:00:28;24.77;55.98
49489;SHT31;35382;51.484;11.476;2023-07-09T06:02:13;24.83;56.65
49489;SHT31;35382;51.484;11.476;2023-07-09T06:03:54;24.92;56.91
49489;SHT31;35382;51.484;11.476;2023-07-09T06:05:35;24.95;56.61
49489;SHT31;35382;51.484;11.476;2023-07-09T06:07:16;25.05;54.12
49489;SHT31;35382;51.484;11.476;2023-07-09T06:08:57;25.17;55.50
49489;SHT31;35382;51.484;11.476;2023-07-09T06:10:38;25.24;54.85
49489;SHT31;35382;51.484;11.476;2023-07-09T06:12:21;25.29;54.86
49489;SHT31;35382;51.484;11.476;2023-07-09T06:14:02;25.24;53.74
49489;SHT31;35382;51.484;11.476;2023-07-09T06:15:43;25.49;54.96
49489;SHT31;35382;51.484;11.476;2023-07-09T06:17:24;25.67;55.31
49489;SHT31;35382;51.484;11.476;2023-07-09T06:19:05;25.98;55.20
49489;SHT31;35382;51.484;11.476;2023-07-09T06:20:51;25.83;55.43
49489;SHT31;35382;51.484;11.476;2023-07-09T06:22:33;25.88;52.75
49489;SHT31;35382;51.484;11.476;2023-07-09T06:24:13;26.01;53.19
49489;SHT31;35382;51.484;11.476;2023-07-09T06:25:54;26.02;52.72
49489;SHT31;35382;51.484;11.476;2023-07-09T06:27:35;26.21;52.87
49489;SHT31;35382;51.484;11.476;2023-07-09T06:29:17;26.14;53.07
49489;SHT31;35382;51.484;11.476;2023-07-09T06:30:58;26.41;50.76
49489;SHT31;35382;51.484;11.476;2023-07-09T06:32:39;26.52;54.03
49489;SHT31;35382;51.484;11.476;2023-07-09T06:34:20;26.51;52.94
49489;SHT31;35382;51.484;11.476;2023-07-09T06:36:01;26.78;54.72
49489;SHT31;35382;51.484;11.476;2023-07-09T06:37:42;26.63;52.25
49489;SHT31;35382;51.484;11.476;2023-07-09T06:39:23;26.85;52.37
49489;SHT31;35382;51.484;11.476;2023-07-09T06:41:04;26.85;52.52
49489;SHT31;35382;51.484;11.476;2023-07-09T06:42:45;27.02;51.75
49489;SHT31;35382;51.484;11.476;2023-07-09T06:44:36;27.00;53.39
49489;SHT31;35382;51.484;11.476;2023-07-09T06:46:18;26.99;53.54
49489;SHT31;35382;51.484;11.476;2023-07-09T06:48:00;26.88;53.16
49489;SHT31;35382;51.484;11.476;2023-07-09T06:49:43;26.92;54.20
49489;SHT31;35382;51.484;11.476;2023-07-09T06:51:24;27.22;52.86
49489;SHT31;35382;51.484;11.476;2023-07-09T06:53:04;27.23;51.36
49489;SHT31;35382;51.484;11.476;2023-07-09T06:54:45;27.49;50.39
49489;SHT31;35382;51.484;11.476;2023-07-09T06:56:26;27.47;52.03
49489;SHT31;35382;51.484;11.476;2023-07-09T06:58:07;27.30;50.49
49489;SHT31;35382;51.484;11.476;2023-07-09T06:59:48;27.59;51.81
49489;SHT31;35382;51.484;11.476;2023-07-09T07:01:29;27.83;51.45
49489;SHT31;35382;51.484;11.476;2023-07-09T07:03:11;27.81;51.01
49489;SHT31;35382;51.484;11.476;2023-07-09T07:04:52;28.11;48.15
49489;SHT31;35382;51.484;11.476;2023-07-09T07:06:33;28.17;50.84
49489;SHT31;35382;51.484;11.476;2023-07-09T07:08:15;28.48;53.04
49489;SHT31;35382;51.484;11.476;2023-07-09T07:09:56;28.44;48.77
49489;SHT31;35382;51.484;11.476;2023-07-09T07:11:37;28.44;47.77
49489;SHT31;35382;51.484;11.476;2023-07-09T07:13:18;28.64;44.77
49489;SHT31;35382;51.484;11.476;2023-07-09T07:14:59;28.67;45.08
49489;SHT31;35382;51.484;11.476;2023-07-09T07:16:40;28.81;45.39
49489;SHT31;35382;51.484;11.476;2023-07-09T07:18:21;28.58;46.89
49489;SHT31;35382;51.484;11.476;2023-07-09T07:20:02;28.75;45.20
49489;SHT31;35382;51.484;11.476;2023-07-09T07:21:43;28.62;45.87
49489;SHT31;35382;51.484;11.476;2023-07-09T07:23:24;28.82;45.86
49489;SHT31;35382;51.484;11.476;2023-07-09T07:25:06;28.88;44.52
49489;SHT31;35382;51.484;11.476;2023-07-09T07:26:48;28.90;44.95
49489;SHT31;35382;51.484;11.476;2023-07-09T07:28:29;28.85;45.06
49489;SHT31;35382;51.484;11.476;2023-07-09T07:30:10;28.95;48.78
49489;SHT31;35382;51.484;11.476;2023-07-09T07:31:53;29.18;46.54
49489;SHT31;35382;51.484;11.476;2023-07-09T07:33:35;29.20;46.92
49489;SHT31;35382;51.484;11.476;2023-07-09T07:35:16;29.45;47.44
49489;SHT31;35382;51.484;11.476;2023-07-09T07:36:58;29.77;47.03
49489;SHT31;35382;51.484;11.476;2023-07-09T07:38:39;29.90;49.09
49489;SHT31;35382;51.484;11.476;2023-07-09T07:40:20;30.10;48.22
49489;SHT31;35382;51.484;11.476;2023-07-09T07:42:01;30.06;47.65
49489;SHT31;35382;51.484;11.476;2023-07-09T07:43:42;29.93;46.50
49489;SHT31;35382;51.484;11.476;2023-07-09T07:45:23;30.13;48.27
49489;SHT31;35382;51.484;11.476;2023-07-09T07:47:05;30.23;49.55
49489;SHT31;35382;51.484;11.476;2023-07-09T07:48:46;30.14;47.94
49489;SHT31;35382;51.484;11.476;2023-07-09T07:50:27;30.14;47.39
49489;SHT31;35382;51.484;11.476;2023-07-09T07:52:08;29.86;47.05
49489;SHT31;35382;51.484;11.476;2023-07-09T07:53:49;30.10;48.08
49489;SHT31;35382;51.484;11.476;2023-07-09T07:55:30;30.38;47.36
49489;SHT31;35382;51.484;11.476;2023-07-09T07:57:11;30.48;46.44
49489;SHT31;35382;51.484;11.476;2023-07-09T07:58:52;30.31;47.22
49489;SHT31;35382;51.484;11.476;2023-07-09T08:00:33;30.44;47.07
49489;SHT31;35382;51.484;11.476;2023-07-09T08:02:14;30.60;46.83
49489;SHT31;35382;51.484;11.476;2023-07-09T08:03:55;30.71;48.92
49489;SHT31;35382;51.484;11.476;2023-07-09T08:05:36;30.77;46.08
49489;SHT31;35382;51.484;11.476;2023-07-09T08:07:18;30.88;42.29
49489;SHT31;35382;51.484;11.476;2023-07-09T08:08:59;30.95;43.80
49489;SHT31;35382;51.484;11.476;2023-07-09T08:10:40;30.95;41.68
49489;SHT31;35382;51.484;11.476;2023-07-09T08:12:21;30.95;40.30
49489;SHT31;35382;51.484;11.476;2023-07-09T08:14:02;31.01;40.22
49489;SHT31;35382;51.484;11.476;2023-07-09T08:15:43;31.16;40.08
49489;SHT31;35382;51.484;11.476;2023-07-09T08:17:25;31.28;43.23
49489;SHT31;35382;51.484;11.476;2023-07-09T08:19:06;31.39;44.19
49489;SHT31;35382;51.484;11.476;2023-07-09T08:20:47;31.42;40.99
49489;SHT31;35382;51.484;11.476;2023-07-09T08:22:28;31.36;43.17
49489;SHT31;35382;51.484;11.476;2023-07-09T08:24:09;31.42;44.02
49489;SHT31;35382;51.484;11.476;2023-07-09T08:25:54;31.46;44.93
49489;SHT31;35382;51.484;11.476;2023-07-09T08:27:36;31.08;43.80
49489;SHT31;35382;51.484;11.476;2023-07-09T08:29:17;31.41;45.13
49489;SHT31;35382;51.484;11.476;2023-07-09T08:30:57;31.45;46.17
49489;SHT31;35382;51.484;11.476;2023-07-09T08:32:38;31.48;45.40
49489;SHT31;35382;51.484;11.476;2023-07-09T08:34:19;31.59;43.64
49489;SHT31;35382;51.484;11.476;2023-07-09T08:36:00;31.56;40.98
49489;SHT31;35382;51.484;11.476;2023-07-09T08:37:41;31.46;41.57
49489;SHT31;35382;51.484;11.476;2023-07-09T08:39:28;31.65;39.86
49489;SHT31;35382;51.484;11.476;2023-07-09T08:41:24;31.90;42.28
49489;SHT31;35382;51.484;11.476;2023-07-09T08:43:10;32.05;39.62
49489;SHT31;35382;51.484;11.476;2023-07-09T08:45:03;31.97;38.77
49489;SHT31;35382;51.484;11.476;2023-07-09T08:47:00;31.90;38.59
49489;SHT31;35382;51.484;11.476;2023-07-09T08:48:46;31.62;38.84
49489;SHT31;35382;51.484;11.476;2023-07-09T08:52:26;31.89;40.38
49489;SHT31;35382;51.484;11.476;2023-07-09T08:54:24;31.96;39.53
49489;SHT31;35382;51.484;11.476;2023-07-09T08:56:09;32.13;38.01
49489;SHT31;35382;51.484;11.476;2023-07-09T08:57:55;32.43;40.87
49489;SHT31;35382;51.484;11.476;2023-07-09T08:59:37;32.52;39.40
49489;SHT31;35382;51.484;11.476;2023-07-09T09:01:36;32.27;42.02
49489;SHT31;35382;51.484;11.476;2023-07-09T09:03:32;32.52;40.86
49489;SHT31;35382;51.484;11.476;2023-07-09T09:05:19;32.41;40.84
49489;SHT31;35382;51.484;11.476;2023-07-09T09:07:16;32.73;39.38
49489;SHT31;35382;51.484;11.476;2023-07-09T09:09:04;32.55;37.89
49489;SHT31;35382;51.484;11.476;2023-07-09T09:10:57;32.71;39.69
49489;SHT31;35382;51.484;11.476;2023-07-09T09:12:51;32.61;36.79
49489;SHT31;35382;51.484;11.476;2023-07-09T09:14:39;32.33;36.73
49489;SHT31;35382;51.484;11.476;2023-07-09T09:16:30;32.40;35.82
49489;SHT31;35382;51.484;11.476;2023-07-09T09:18:25;32.66;38.56
49489;SHT31;35382;51.484;11.476;2023-07-09T09:20:12;32.84;37.08
49489;SHT31;35382;51.484;11.476;2023-07-09T09:22:01;33.04;36.60
49489;SHT31;35382;51.484;11.476;2023-07-09T09:23:48;32.97;35.70
49489;SHT31;35382;51.484;11.476;2023-07-09T09:25:31;33.08;35.91
49489;SHT31;35382;51.484;11.476;2023-07-09T09:27:13;33.14;35.22
49489;SHT31;35382;51.484;11.476;2023-07-09T09:28:53;33.03;35.04
49489;SHT31;35382;51.484;11.476;2023-07-09T09:30:34;33.13;34.87
49489;SHT31;35382;51.484;11.476;2023-07-09T09:32:27;33.13;36.69
49489;SHT31;35382;51.484;11.476;2023-07-09T09:34:20;32.91;35.83
49489;SHT31;35382;51.484;11.476;2023-07-09T09:36:03;32.83;34.83
49489;SHT31;35382;51.484;11.476;2023-07-09T09:37:51;32.49;34.96
49489;SHT31;35382;51.484;11.476;2023-07-09T09:39:38;32.76;35.47
49489;SHT31;35382;51.484;11.476;2023-07-09T09:41:24;32.70;36.46
49489;SHT31;35382;51.484;11.476;2023-07-09T09:43:12;33.00;34.70
49489;SHT31;35382;51.484;11.476;2023-07-09T09:44:55;33.10;33.88
49489;SHT31;35382;51.484;11.476;2023-07-09T09:46:36;32.90;34.97
49489;SHT31;35382;51.484;11.476;2023-07-09T09:48:26;33.06;35.19
49489;SHT31;35382;51.484;11.476;2023-07-09T09:50:13;33.25;35.29
49489;SHT31;35382;51.484;11.476;2023-07-09T09:51:54;33.45;35.73
49489;SHT31;35382;51.484;11.476;2023-07-09T09:53:38;33.82;37.62
49489;SHT31;35382;51.484;11.476;2023-07-09T09:55:23;33.78;35.72
49489;SHT31;35382;51.484;11.476;2023-07-09T09:57:15;33.88;35.38
49489;SHT31;35382;51.484;11.476;2023-07-09T09:58:57;33.87;37.24
49489;SHT31;35382;51.484;11.476;2023-07-09T10:00:38;33.78;33.18
49489;SHT31;35382;51.484;11.476;2023-07-09T10:02:22;33.92;35.47
49489;SHT31;35382;51.484;11.476;2023-07-09T10:04:05;33.99;35.79
49489;SHT31;35382;51.484;11.476;2023-07-09T10:05:58;34.04;35.53
49489;SHT31;35382;51.484;11.476;2023-07-09T10:07:46;34.11;33.05
49489;SHT31;35382;51.484;11.476;2023-07-09T10:09:46;34.12;32.67
49489;SHT31;35382;51.484;11.476;2023-07-09T10:11:45;34.06;32.70
49489;SHT31;35382;51.484;11.476;2023-07-09T10:13:30;34.08;33.36
49489;SHT31;35382;51.484;11.476;2023-07-09T10:17:50;34.25;35.73
49489;SHT31;35382;51.484;11.476;2023-07-09T10:19:20;34.11;33.20
49489;SHT31;35382;51.484;11.476;2023-07-09T10:21:20;34.02;32.86
49489;SHT31;35382;51.484;11.476;2023-07-09T10:25:02;33.92;33.77
49489;SHT31;35382;51.484;11.476;2023-07-09T10:26:51;34.05;34.09
49489;SHT31;35382;51.484;11.476;2023-07-09T10:34:36;34.26;34.74
49489;SHT31;35382;51.484;11.476;2023-07-09T10:36:30;34.18;34.13
49489;SHT31;35382;51.484;11.476;2023-07-09T10:40:53;34.46;33.00
49489;SHT31;35382;51.484;11.476;2023-07-09T10:42:42;34.41;33.75
49489;SHT31;35382;51.484;11.476;2023-07-09T10:44:40;34.63;29.87
49489;SHT31;35382;51.484;11.476;2023-07-09T10:46:25;34.67;33.21
49489;SHT31;35382;51.484;11.476;2023-07-09T10:48:18;34.51;29.37
49489;SHT31;35382;51.484;11.476;2023-07-09T10:50:02;34.35;31.24
49489;SHT31;35382;51.484;11.476;2023-07-09T10:51:49;34.36;33.12
49489;SHT31;35382;51.484;11.476;2023-07-09T10:53:41;34.62;31.48
49489;SHT31;35382;51.484;11.476;2023-07-09T10:55:41;34.59;32.91
49489;SHT31;35382;51.484;11.476;2023-07-09T10:57:43;34.38;30.45
49489;SHT31;35382;51.484;11.476;2023-07-09T10:59:31;34.33;30.52